| time (UTC) | temp F | wind direction | speed MPH | gust MPH | rain 1hr in | rain 24hr in | rain mn in | humidity % | barometer mb |
| 20260903192306 | 54 | 347 | 1.0 | 5.0 | 0.18 | 0.21 | 0.21 | 85 | 1009.8 |
| 20260903191805 | 54 | 330 | 1.0 | 5.0 | 0.15 | 0.18 | 0.18 | 83 | 1010.0 |
| 20260903191304 | 54 | 332 | 1.0 | 3.0 | 0.13 | 0.16 | 0.16 | 82 | 1010.1 |
| 20260903190805 | 55 | 252 | 1.0 | 2.0 | 0.11 | 0.14 | 0.14 | 82 | 1010.3 |
| 20260903190304 | 55 | 250 | 1.0 | 3.0 | 0.09 | 0.12 | 0.12 | 81 | 1010.2 |
| 20260903185805 | 55 | 269 | 1.0 | 5.0 | 0.07 | 0.10 | 0.10 | 79 | 1010.3 |
| 20260903185306 | 56 | 259 | 1.0 | 5.0 | 0.05 | 0.08 | 0.08 | 77 | 1010.1 |
| 20260903184804 | 56 | 266 | 2.0 | 5.0 | 0.04 | 0.07 | 0.07 | 74 | 1010.1 |
| 20260903184305 | 57 | 253 | 1.0 | 5.0 | 0.03 | 0.06 | 0.06 | 72 | 1009.8 |
| 20260903183804 | 58 | 259 | 3.0 | 9.0 | 0.01 | 0.04 | 0.04 | 68 | 1009.4 |
| 20260903183304 | 59 | 286 | 4.0 | 12.0 | 0.01 | 0.04 | 0.04 | 63 | 1009.2 |
| 20260903182804 | 59 | 267 | 4.0 | 10.0 | 0.00 | 0.03 | 0.03 | 59 | 1009.2 |
| 20260903182306 | 60 | 267 | 3.0 | 8.0 | 0.00 | 0.03 | 0.03 | 58 | 1009.0 |
| 20260903181305 | 60 | 261 | 5.0 | 10.0 | 0.00 | 0.03 | 0.03 | 56 | 1008.8 |
| 20260903180804 | 61 | 270 | 3.0 | 8.0 | 0.00 | 0.03 | 0.03 | 64 | 1008.6 |
| 20260903180305 | 61 | 47 | 2.0 | 7.0 | 0.00 | 0.03 | 0.03 | 64 | 1008.6 |
| 20260903175306 | 61 | 253 | 2.0 | 6.0 | 0.00 | 0.03 | 0.03 | 64 | 1008.5 |
| 20260903174804 | 61 | 56 | 1.0 | 9.0 | 0.00 | 0.03 | 0.03 | 65 | 1008.4 |
| 20260903174305 | 61 | 9 | 3.0 | 9.0 | 0.00 | 0.03 | 0.03 | 65 | 1008.4 |
| 20260903173804 | 61 | 341 | 5.0 | 10.0 | 0.00 | 0.03 | 0.03 | 65 | 1008.5 |
| 20260903173305 | 61 | 10 | 4.0 | 10.0 | 0.00 | 0.03 | 0.03 | 65 | 1008.1 |
| 20260903172306 | 62 | 358 | 2.0 | 8.0 | 0.00 | 0.03 | 0.03 | 64 | 1007.9 |
| 20260903171804 | 62 | 320 | 3.0 | 9.0 | 0.00 | 0.03 | 0.03 | 64 | 1007.7 |
| 20260903171304 | 62 | 264 | 3.0 | 9.0 | 0.00 | 0.03 | 0.03 | 64 | 1007.7 |
| 20260903170804 | 61 | 317 | 3.0 | 14.0 | 0.00 | 0.03 | 0.03 | 65 | 1007.6 |
| 20260903165804 | 62 | 26 | 5.0 | 14.0 | 0.00 | 0.03 | 0.03 | 64 | 1007.4 |
| 20260903165305 | 62 | 340 | 3.0 | 9.0 | 0.00 | 0.03 | 0.03 | 64 | 1007.5 |
| 20260903164804 | 62 | 18 | 3.0 | 9.0 | 0.00 | 0.03 | 0.03 | 64 | 1007.3 |
| 20260903164305 | 62 | 321 | 3.0 | 8.0 | 0.00 | 0.03 | 0.03 | 63 | 1006.9 |
| 20260903163804 | 62 | 352 | 3.0 | 9.0 | 0.00 | 0.03 | 0.03 | 64 | 1006.9 |
| 20260903163304 | 61 | 265 | 3.0 | 10.0 | 0.00 | 0.03 | 0.03 | 64 | 1006.9 |
| 20260903162804 | 61 | 26 | 3.0 | 9.0 | 0.00 | 0.03 | 0.03 | 65 | 1006.6 |
| 20260903162306 | 61 | 274 | 2.0 | 10.0 | 0.00 | 0.03 | 0.03 | 65 | 1006.6 |
| 20260903161804 | 61 | 265 | 2.0 | 9.0 | 0.00 | 0.03 | 0.03 | 65 | 1006.5 |
| 20260903160804 | 61 | 257 | 5.0 | 10.0 | 0.00 | 0.03 | 0.03 | 65 | 1006.5 |
| 20260903160305 | 61 | 284 | 1.0 | 6.0 | 0.00 | 0.03 | 0.03 | 65 | 1006.1 |
| 20260903155805 | 60 | 320 | 3.0 | 10.0 | 0.00 | 0.03 | 0.03 | 66 | 1006.5 |
| 20260903155306 | 60 | 341 | 5.0 | 10.0 | 0.00 | 0.03 | 0.03 | 67 | 1006.2 |
| 20260903154804 | 60 | 19 | 3.0 | 9.0 | 0.00 | 0.03 | 0.03 | 68 | 1006.2 |
| 20260903154306 | 60 | 263 | 3.0 | 10.0 | 0.00 | 0.03 | 0.03 | 68 | 1006.4 |
| 20260903153804 | 60 | 354 | 3.0 | 12.0 | 0.00 | 0.03 | 0.03 | 68 | 1006.3 |
| 20260903152805 | 59 | 25 | 4.0 | 9.0 | 0.00 | 0.03 | 0.03 | 69 | 1006.5 |
| 20260903152306 | 59 | 333 | 2.0 | 7.0 | 0.00 | 0.03 | 0.03 | 70 | 1006.8 |
| 20260903151804 | 59 | 18 | 3.0 | 10.0 | 0.00 | 0.03 | 0.03 | 69 | 1006.8 |
| 20260903151304 | 59 | 319 | 4.0 | 8.0 | 0.00 | 0.03 | 0.03 | 69 | 1006.3 |
| 20260903150804 | 59 | 345 | 2.0 | 5.0 | 0.00 | 0.03 | 0.03 | 69 | 1006.1 |
| 20260903150306 | 59 | 354 | 3.0 | 7.0 | 0.00 | 0.03 | 0.03 | 69 | 1005.9 |
| 20260903145804 | 59 | 268 | 2.0 | 10.0 | 0.00 | 0.03 | 0.03 | 69 | 1005.9 |
| 20260903145306 | 59 | 349 | 4.0 | 10.0 | 0.00 | 0.03 | 0.03 | 69 | 1006.0 |
| 20260903144804 | 59 | 0 | 1.0 | 9.0 | 0.00 | 0.03 | 0.03 | 70 | 1005.8 |
| 20260903143304 | 59 | 346 | 4.0 | 9.0 | 0.01 | 0.03 | 0.03 | 69 | 1005.6 |
| 20260903142804 | 59 | 12 | 2.0 | 7.0 | 0.02 | 0.03 | 0.03 | 70 | 1005.6 |
| 20260903142306 | 59 | 19 | 3.0 | 7.0 | 0.03 | 0.03 | 0.03 | 70 | 1005.4 |
| 20260903141804 | 59 | 345 | 2.0 | 8.0 | 0.03 | 0.03 | 0.03 | 70 | 1005.6 |
| 20260903141304 | 59 | 339 | 2.0 | 7.0 | 0.03 | 0.03 | 0.03 | 71 | 1005.7 |
| 20260903140804 | 59 | 350 | 3.0 | 9.0 | 0.03 | 0.03 | 0.03 | 71 | 1005.5 |
| 20260903140305 | 59 | 354 | 2.0 | 8.0 | 0.03 | 0.03 | 0.03 | 71 | 1005.4 |
| 20260903135804 | 59 | 16 | 3.0 | 7.0 | 0.03 | 0.03 | 0.03 | 72 | 1005.5 |
| 20260903135306 | 58 | 323 | 3.0 | 9.0 | 0.03 | 0.03 | 0.03 | 71 | 1005.4 |
| 20260903133805 | 58 | 273 | 2.0 | 7.0 | 0.03 | 0.03 | 0.03 | 74 | 1005.1 |
| 20260903133305 | 58 | 292 | 1.0 | 3.0 | 0.02 | 0.02 | 0.02 | 75 | 1005.0 |
| 20260903132805 | 58 | 2 | 2.0 | 5.0 | 0.01 | 0.01 | 0.01 | 73 | 1005.0 |
| 20260903131805 | 58 | 352 | 2.0 | 6.0 | 0.00 | 0.00 | 0.00 | 69 | 1004.7 |
| 20260903131305 | 58 | 285 | 2.0 | 8.0 | 0.00 | 0.00 | 0.00 | 69 | 1004.7 |
| 20260903130805 | 58 | 7 | 2.0 | 6.0 | 0.00 | 0.00 | 0.00 | 69 | 1004.9 |
| 20260903130306 | 58 | 339 | 2.0 | 9.0 | 0.00 | 0.00 | 0.00 | 68 | 1004.5 |
| 20260903125805 | 58 | 357 | 3.0 | 7.0 | 0.00 | 0.00 | 0.00 | 68 | 1004.5 |
| 20260903125306 | 58 | 14 | 3.0 | 6.0 | 0.00 | 0.00 | 0.00 | 67 | 1004.5 |
| 20260903124805 | 59 | 0 | 2.0 | 7.0 | 0.00 | 0.00 | 0.00 | 66 | 1004.3 |
| 20260903123305 | 59 | 333 | 2.0 | 7.0 | 0.00 | 0.00 | 0.00 | 67 | 1004.0 |
| 20260903122805 | 59 | 18 | 2.0 | 7.0 | 0.00 | 0.00 | 0.00 | 66 | 1004.2 |
| 20260903122306 | 59 | 344 | 2.0 | 9.0 | 0.00 | 0.00 | 0.00 | 65 | 1004.0 |
| 20260903121805 | 59 | 356 | 2.0 | 9.0 | 0.00 | 0.00 | 0.00 | 65 | 1004.1 |
| 20260903121305 | 59 | 32 | 3.0 | 7.0 | 0.00 | 0.00 | 0.00 | 64 | 1003.9 |
| 20260903120806 | 59 | 343 | 2.0 | 6.0 | 0.00 | 0.00 | 0.00 | 63 | 1003.9 |
| 20260903115805 | 59 | 21 | 1.0 | 8.0 | 0.00 | 0.00 | 0.00 | 59 | 1003.7 |
| 20260903115306 | 59 | 46 | 2.0 | 6.0 | 0.00 | 0.00 | 0.00 | 57 | 1003.7 |
| 20260903114805 | 59 | 3 | 3.0 | 7.0 | 0.00 | 0.00 | 0.00 | 56 | 1003.9 |
| 20260903113805 | 57 | 15 | 1.0 | 2.0 | 0.00 | 0.00 | 0.00 | 62 | 1003.6 |
| 20260903113305 | 58 | 15 | 0.0 | 3.0 | 0.00 | 0.00 | 0.00 | 62 | 1003.5 |
| 20260903112805 | 59 | 344 | 1.0 | 3.0 | 0.00 | 0.00 | 0.00 | 60 | 1003.7 |
| 20260903112306 | 60 | 15 | 1.0 | 6.0 | 0.00 | 0.00 | 0.00 | 57 | 1003.3 |
| 20260903111805 | 61 | 354 | 1.0 | 5.0 | 0.00 | 0.00 | 0.00 | 51 | 1003.2 |
| 20260903111305 | 61 | 249 | 2.0 | 9.0 | 0.00 | 0.00 | 0.00 | 50 | 1003.3 |
| 20260903110805 | 61 | 279 | 4.0 | 9.0 | 0.00 | 0.00 | 0.00 | 49 | 1003.1 |
| 20260903110306 | 61 | 259 | 3.0 | 9.0 | 0.00 | 0.00 | 0.00 | 50 | 1003.3 |
| 20260903105805 | 60 | 275 | 3.0 | 8.0 | 0.00 | 0.00 | 0.00 | 51 | 1003.3 |
| 20260903105306 | 60 | 270 | 3.0 | 7.0 | 0.00 | 0.00 | 0.00 | 53 | 1003.2 |
| 20260903104807 | 60 | 273 | 3.0 | 9.0 | 0.00 | 0.00 | 0.00 | 53 | 1003.1 |
| 20260903104306 | 60 | 265 | 2.0 | 7.0 | 0.00 | 0.00 | 0.00 | 53 | 1003.2 |
| 20260903103805 | 60 | 256 | 2.0 | 7.0 | 0.00 | 0.00 | 0.00 | 54 | 1003.5 |
| 20260903103305 | 60 | 271 | 2.0 | 7.0 | 0.00 | 0.00 | 0.00 | 54 | 1003.3 |
| 20260903102806 | 60 | 262 | 3.0 | 9.0 | 0.00 | 0.00 | 0.00 | 54 | 1003.2 |
| 20260903101805 | 60 | 270 | 2.0 | 6.0 | 0.00 | 0.00 | 0.00 | 54 | 1003.5 |
| 20260903101305 | 60 | 305 | 1.0 | 5.0 | 0.00 | 0.00 | 0.00 | 55 | 1003.6 |
| 20260903100806 | 60 | 244 | 2.0 | 6.0 | 0.00 | 0.00 | 0.00 | 55 | 1003.6 |
| 20260903100305 | 60 | 354 | 3.0 | 7.0 | 0.00 | 0.00 | 0.00 | 54 | 1003.8 |
| 20260903095805 | 60 | 332 | 3.0 | 7.0 | 0.00 | 0.00 | 0.00 | 54 | 1003.9 |
| 20260903094806 | 60 | 22 | 2.0 | 8.0 | 0.00 | 0.00 | 0.00 | 54 | 1003.8 |
| 20260903094305 | 60 | 2 | 3.0 | 9.0 | 0.00 | 0.00 | 0.00 | 54 | 1003.5 |
| 20260903093305 | 60 | 355 | 1.0 | 5.0 | 0.00 | 0.00 | 0.00 | 54 | 1003.4 |
| 20260903092806 | 60 | 330 | 1.0 | 5.0 | 0.00 | 0.00 | 0.00 | 54 | 1003.6 |
| 20260903091806 | 60 | 306 | 0.0 | 3.0 | 0.00 | 0.00 | 0.00 | 53 | 1003.6 |
| 20260903091305 | 60 | 290 | 1.0 | 5.0 | 0.00 | 0.00 | 0.00 | 53 | 1003.9 |
| 20260903090806 | 60 | 272 | 2.0 | 7.0 | 0.00 | 0.00 | 0.00 | 55 | 1003.8 |
| 20260903090305 | 60 | 1 | 2.0 | 6.0 | 0.00 | 0.00 | 0.00 | 56 | 1003.9 |
| 20260903085805 | 59 | 4 | 2.0 | 6.0 | 0.00 | 0.00 | 0.00 | 56 | 1004.1 |
| 20260903085306 | 59 | 170 | 0.0 | 7.0 | 0.00 | 0.00 | 0.00 | 56 | 1003.7 |
| 20260903084806 | 59 | 20 | 1.0 | 6.0 | 0.00 | 0.00 | 0.00 | 57 | 1003.9 |
| 20260903084305 | 59 | 353 | 2.0 | 6.0 | 0.00 | 0.00 | 0.00 | 56 | 1003.5 |
| 20260903083805 | 60 | 47 | 2.0 | 6.0 | 0.00 | 0.00 | 0.00 | 56 | 1003.7 |
| 20260903082805 | 60 | 310 | 2.0 | 7.0 | 0.00 | 0.00 | 0.00 | 54 | 1003.4 |
| 20260903082306 | 60 | 272 | 2.0 | 5.0 | 0.00 | 0.00 | 0.00 | 54 | 1003.3 |
| 20260903081805 | 60 | 118 | 1.0 | 7.0 | 0.00 | 0.00 | 0.00 | 54 | 1003.4 |
| 20260903081306 | 60 | 307 | 1.0 | 9.0 | 0.00 | 0.00 | 0.00 | 54 | 1003.0 |
| 20260903080805 | 60 | 279 | 3.0 | 9.0 | 0.00 | 0.00 | 0.00 | 54 | 1003.3 |
| 20260903080305 | 60 | 295 | 2.0 | 6.0 | 0.00 | 0.00 | 0.00 | 53 | 1003.2 |
| 20260903075805 | 60 | 267 | 2.0 | 8.0 | 0.00 | 0.00 | 0.00 | 53 | 1003.3 |
| 20260903075307 | 60 | 283 | 2.0 | 6.0 | 0.00 | 0.00 | 0.00 | 54 | 1003.4 |
| 20260903074305 | 60 | 216 | 1.0 | 6.0 | 0.00 | 0.00 | 0.00 | 55 | 1003.4 |
| 20260903073805 | 60 | 277 | 2.0 | 7.0 | 0.00 | 0.00 | 0.00 | 55 | 1003.2 |
| 20260903073306 | 59 | 253 | 2.0 | 8.0 | 0.00 | 0.00 | 0.00 | 56 | 1003.6 |
| 20260903072805 | 58 | 298 | 2.0 | 9.0 | 0.00 | 0.00 | 0.00 | 59 | 1003.8 |
| 20260903072307 | 57 | 85 | 1.0 | 7.0 | 0.00 | 0.00 | 0.00 | 61 | 1004.1 |
| 20260903071306 | 57 | 351 | 4.0 | 9.0 | 0.00 | 0.00 | 0.00 | 61 | 1004.3 |
| 20260903070305 | 56 | 82 | 2.0 | 7.0 | 0.00 | 0.00 | 0.00 | 64 | 1004.4 |
| 20260903065805 | 56 | 47 | 1.0 | 5.0 | 0.00 | 0.00 | 0.00 | 65 | 1004.6 |
| 20260903065306 | 55 | 18 | 1.0 | 5.0 | 0.00 | 0.00 | 0.00 | 66 | 1004.5 |
| 20260903064805 | 56 | 18 | 0.0 | 3.0 | 0.00 | 0.00 | 0.00 | 66 | 1004.4 |
| 20260903064305 | 56 | 19 | 1.0 | 3.0 | 0.00 | 0.00 | 0.00 | 66 | 1004.4 |
| 20260903063806 | 56 | 10 | 1.0 | 3.0 | 0.00 | 0.00 | 0.00 | 66 | 1004.3 |
| 20260903062805 | 56 | 14 | 1.0 | 5.0 | 0.00 | 0.00 | 0.00 | 65 | 1004.4 |
| 20260903062306 | 56 | 15 | 1.0 | 2.0 | 0.00 | 0.00 | 0.00 | 65 | 1004.5 |
| 20260903061806 | 56 | 16 | 0.0 | 1.0 | 0.00 | 0.00 | 0.00 | 65 | 1004.6 |
| 20260903061305 | 56 | 16 | 0.0 | 1.0 | 0.00 | 0.00 | 0.00 | 65 | 1004.6 |
| 20260903060817 | 56 | 15 | 1.0 | 3.0 | 0.00 | 0.00 | 0.00 | 66 | 1004.6 |
| 20260903060306 | 56 | 15 | 1.0 | 3.0 | 0.00 | 0.00 | 0.00 | 66 | 1005.0 |
| 20260903055806 | 56 | 26 | 1.0 | 3.0 | 0.00 | 0.00 | 0.00 | 67 | 1004.9 |
| 20260903055306 | 56 | 251 | 0.0 | 1.0 | 0.00 | 0.00 | 0.00 | 68 | 1004.9 |
| 20260903054805 | 56 | 251 | 0.0 | 0.0 | 0.00 | 0.00 | 0.00 | 67 | 1005.0 |
| 20260903054305 | 56 | 251 | 0.0 | 0.0 | 0.00 | 0.00 | 0.00 | 67 | 1004.8 |
| 20260903053806 | 56 | 251 | 0.0 | 0.0 | 0.00 | 0.00 | 0.00 | 67 | 1004.8 |
| 20260903053305 | 56 | 251 | 0.0 | 0.0 | 0.00 | 0.00 | 0.00 | 66 | 1004.6 |
| 20260903052805 | 57 | 251 | 0.0 | 0.0 | 0.00 | 0.00 | 0.00 | 65 | 1004.8 |
| 20260903052307 | 57 | 251 | 0.0 | 0.0 | 0.00 | 0.00 | 0.00 | 64 | 1004.8 |
| 20260903051806 | 57 | 251 | 0.0 | 0.0 | 0.00 | 0.00 | 0.00 | 65 | 1004.8 |
| 20260903051305 | 58 | 251 | 0.0 | 0.0 | 0.00 | 0.00 | 0.00 | 63 | 1004.7 |
| 20260903050806 | 58 | 251 | 0.0 | 0.0 | 0.00 | 0.00 | 0.00 | 62 | 1004.6 |
| 20260903050306 | 59 | 251 | 0.0 | 0.0 | 0.00 | 0.00 | 0.00 | 62 | 1004.5 |
| 20260903045806 | 59 | 251 | 0.0 | 0.0 | 0.00 | 0.00 | 0.00 | 62 | 1004.7 |
| 20260903045306 | 59 | 251 | 0.0 | 0.0 | 0.00 | 0.00 | 0.00 | 62 | 1004.5 |
| 20260903044805 | 60 | 251 | 0.0 | 0.0 | 0.00 | 0.00 | 0.00 | 60 | 1004.5 |
| 20260903044305 | 61 | 251 | 0.0 | 0.0 | 0.00 | 0.00 | 0.00 | 58 | 1004.4 |
| 20260903043806 | 61 | 251 | 0.0 | 1.0 | 0.00 | 0.00 | 0.00 | 56 | 1004.2 |
| 20260903043305 | 62 | 251 | 0.0 | 1.0 | 0.00 | 0.00 | 0.00 | 56 | 1004.3 |
| 20260903042806 | 62 | 251 | 0.0 | 1.0 | 0.00 | 0.00 | 0.00 | 56 | 1004.4 |
| 20260903042306 | 62 | 251 | 0.0 | 2.0 | 0.00 | 0.00 | 0.00 | 56 | 1004.4 |
| 20260903040306 | 63 | 245 | 1.0 | 3.0 | 0.00 | 0.00 | 0.00 | 55 | 1004.6 |
| 20260903035805 | 63 | 254 | 1.0 | 5.0 | 0.00 | 0.00 | 0.00 | 56 | 1004.7 |
| 20260903035306 | 63 | 251 | 1.0 | 3.0 | 0.00 | 0.00 | 0.00 | 56 | 1004.9 |
| 20260903034806 | 63 | 242 | 1.0 | 3.0 | 0.00 | 0.00 | 0.00 | 57 | 1005.2 |
| 20260903034305 | 62 | 262 | 1.0 | 2.0 | 0.00 | 0.00 | 0.00 | 57 | 1005.5 |
| 20260903033806 | 62 | 175 | 0.0 | 1.0 | 0.00 | 0.00 | 0.00 | 57 | 1005.5 |
| 20260903032806 | 62 | 175 | 0.0 | 0.0 | 0.00 | 0.00 | 0.00 | 58 | 1006.1 |
| 20260903032306 | 62 | 175 | 0.0 | 0.0 | 0.00 | 0.00 | 0.00 | 58 | 1006.4 |
| 20260903031805 | 62 | 175 | 0.0 | 0.0 | 0.00 | 0.00 | 0.00 | 57 | 1006.5 |
| 20260903031305 | 63 | 175 | 0.0 | 0.0 | 0.00 | 0.00 | 0.00 | 57 | 1006.5 |
| 20260903030806 | 64 | 175 | 0.0 | 0.0 | 0.00 | 0.00 | 0.00 | 55 | 1006.5 |
| 20260903030305 | 64 | 175 | 0.0 | 1.0 | 0.00 | 0.00 | 0.00 | 54 | 1006.6 |
| 20260903025805 | 63 | 175 | 0.0 | 1.0 | 0.00 | 0.00 | 0.00 | 55 | 1006.6 |
| 20260903025306 | 63 | 175 | 0.0 | 0.0 | 0.00 | 0.00 | 0.00 | 55 | 1006.5 |
| 20260903024806 | 64 | 175 | 0.0 | 0.0 | 0.00 | 0.00 | 0.00 | 54 | 1006.6 |
| 20260903024305 | 65 | 175 | 0.0 | 0.0 | 0.00 | 0.00 | 0.00 | 53 | 1006.6 |
| 20260903023805 | 65 | 175 | 0.0 | 0.0 | 0.00 | 0.00 | 0.00 | 52 | 1006.5 |
| 20260903023304 | 65 | 175 | 0.0 | 1.0 | 0.00 | 0.00 | 0.00 | 52 | 1006.5 |
| 20260903022807 | 66 | 175 | 0.0 | 1.0 | 0.00 | 0.00 | 0.00 | 51 | 1006.5 |
| 20260903022306 | 66 | 175 | 0.0 | 1.0 | 0.00 | 0.00 | 0.00 | 51 | 1006.6 |
| 20260903021807 | 66 | 90 | 1.0 | 2.0 | 0.00 | 0.00 | 0.00 | 51 | 1006.7 |
| 20260903021305 | 66 | 174 | 0.0 | 1.0 | 0.00 | 0.00 | 0.00 | 50 | 1007.0 |
| 20260903020806 | 66 | 174 | 0.0 | 2.0 | 0.00 | 0.00 | 0.00 | 50 | 1006.9 |
| 20260903015805 | 67 | 187 | 0.0 | 2.0 | 0.00 | 0.00 | 0.00 | 48 | 1006.8 |
| 20260903015306 | 68 | 199 | 0.0 | 3.0 | 0.00 | 0.00 | 0.00 | 47 | 1006.7 |
| 20260903014306 | 69 | 41 | 1.0 | 5.0 | 0.00 | 0.00 | 0.00 | 44 | 1006.7 |
| 20260903013306 | 70 | 55 | 1.0 | 6.0 | 0.00 | 0.00 | 0.00 | 41 | 1006.1 |
| 20260903012805 | 70 | 83 | 2.0 | 6.0 | 0.00 | 0.00 | 0.00 | 40 | 1006.4 |
| 20260903012306 | 71 | 90 | 2.0 | 5.0 | 0.00 | 0.00 | 0.00 | 39 | 1006.3 |
| 20260903011805 | 72 | 77 | 2.0 | 3.0 | 0.00 | 0.00 | 0.00 | 38 | 1006.4 |
| 20260903011306 | 72 | 79 | 1.0 | 2.0 | 0.00 | 0.00 | 0.00 | 37 | 1006.3 |
| 20260903010805 | 72 | 75 | 1.0 | 5.0 | 0.00 | 0.00 | 0.00 | 36 | 1006.3 |
| 20260903010305 | 72 | 56 | 1.0 | 2.0 | 0.00 | 0.00 | 0.00 | 35 | 1006.3 |
| 20260903005805 | 72 | 75 | 1.0 | 3.0 | 0.00 | 0.00 | 0.00 | 35 | 1006.2 |
| 20260903005306 | 73 | 52 | 2.0 | 6.0 | 0.00 | 0.00 | 0.00 | 34 | 1006.0 |
| 20260903004305 | 73 | 58 | 2.0 | 5.0 | 0.00 | 0.00 | 0.00 | 34 | 1005.6 |
| 20260903003805 | 73 | 33 | 1.0 | 3.0 | 0.00 | 0.00 | 0.00 | 34 | 1005.7 |
| 20260903003306 | 73 | 81 | 2.0 | 7.0 | 0.00 | 0.00 | 0.00 | 33 | 1005.8 |
| 20260903002805 | 73 | 44 | 2.0 | 5.0 | 0.00 | 0.00 | 0.00 | 34 | 1006.0 |
| 20260903002306 | 74 | 355 | 1.0 | 3.0 | 0.00 | 0.00 | 0.00 | 33 | 1005.7 |
| 20260903001805 | 74 | 61 | 1.0 | 6.0 | 0.00 | 0.00 | 0.00 | 33 | 1005.8 |
| 20260903001308 | 74 | 37 | 2.0 | 7.0 | 0.00 | 0.00 | 0.00 | 32 | 1005.6 |
| 20260903000805 | 74 | 55 | 2.0 | 9.0 | 0.00 | 0.00 | 0.00 | 32 | 1005.6 |
| 20260903000305 | 74 | 73 | 3.0 | 8.0 | 0.00 | 0.00 | 0.00 | 32 | 1005.6 |
| 20260902235805 | 74 | 73 | 2.0 | 6.0 | 0.00 | 0.00 | 0.00 | 31 | 1005.8 |
| 20260902235306 | 74 | 40 | 3.0 | 8.0 | 0.00 | 0.00 | 0.00 | 32 | 1005.8 |
| 20260902234805 | 75 | 51 | 3.0 | 8.0 | 0.00 | 0.00 | 0.00 | 32 | 1005.6 |
| 20260902234305 | 75 | 40 | 3.0 | 12.0 | 0.00 | 0.00 | 0.00 | 32 | 1005.5 |
| 20260902233805 | 76 | 34 | 2.0 | 10.0 | 0.00 | 0.00 | 0.00 | 32 | 1005.6 |
| 20260902233306 | 76 | 70 | 2.0 | 9.0 | 0.00 | 0.00 | 0.00 | 32 | 1005.6 |
| 20260902232805 | 75 | 29 | 2.0 | 8.0 | 0.00 | 0.00 | 0.00 | 32 | 1005.8 |
| 20260902232306 | 75 | 20 | 2.0 | 7.0 | 0.00 | 0.00 | 0.00 | 32 | 1005.6 |
| 20260902231805 | 75 | 27 | 5.0 | 9.0 | 0.00 | 0.00 | 0.00 | 31 | 1005.7 |
| 20260902231306 | 75 | 37 | 2.0 | 8.0 | 0.00 | 0.00 | 0.00 | 31 | 1005.9 |
| 20260902230805 | 75 | 79 | 3.0 | 8.0 | 0.00 | 0.00 | 0.00 | 31 | 1005.7 |
| 20260902230306 | 75 | 55 | 3.0 | 8.0 | 0.00 | 0.00 | 0.00 | 30 | 1005.8 |
| 20260902225306 | 75 | 40 | 2.0 | 9.0 | 0.00 | 0.00 | 0.00 | 32 | 1006.1 |
| 20260902224805 | 75 | 356 | 3.0 | 9.0 | 0.00 | 0.00 | 0.00 | 32 | 1006.2 |
| 20260902223805 | 73 | 56 | 3.0 | 9.0 | 0.00 | 0.00 | 0.00 | 33 | 1006.4 |
| 20260902223305 | 73 | 47 | 3.0 | 10.0 | 0.00 | 0.00 | 0.00 | 33 | 1006.4 |
| 20260902222805 | 73 | 351 | 4.0 | 10.0 | 0.00 | 0.00 | 0.00 | 34 | 1006.6 |
| 20260902222306 | 73 | 41 | 4.0 | 8.0 | 0.00 | 0.00 | 0.00 | 34 | 1006.3 |
| 20260902221806 | 73 | 53 | 4.0 | 9.0 | 0.00 | 0.00 | 0.00 | 34 | 1006.3 |
| 20260902221306 | 73 | 68 | 2.0 | 9.0 | 0.00 | 0.00 | 0.00 | 35 | 1006.6 |
| 20260902220805 | 72 | 50 | 2.0 | 8.0 | 0.00 | 0.00 | 0.00 | 36 | 1006.6 |
| 20260902220305 | 72 | 69 | 3.0 | 8.0 | 0.00 | 0.00 | 0.00 | 36 | 1007.0 |
| 20260902215805 | 72 | 61 | 3.0 | 9.0 | 0.00 | 0.00 | 0.00 | 36 | 1007.0 |
| 20260902215306 | 72 | 43 | 2.0 | 8.0 | 0.00 | 0.00 | 0.00 | 36 | 1007.4 |
| 20260902214805 | 73 | 59 | 4.0 | 9.0 | 0.00 | 0.00 | 0.00 | 36 | 1007.4 |
| 20260902214305 | 73 | 66 | 3.0 | 9.0 | 0.00 | 0.00 | 0.00 | 36 | 1007.4 |
| 20260902213806 | 72 | 78 | 3.0 | 8.0 | 0.00 | 0.00 | 0.00 | 36 | 1007.7 |
| 20260902213305 | 72 | 59 | 3.0 | 8.0 | 0.00 | 0.00 | 0.00 | 36 | 1007.7 |
| 20260902212805 | 71 | 82 | 4.0 | 9.0 | 0.00 | 0.00 | 0.00 | 36 | 1007.9 |
| 20260902211806 | 72 | 81 | 3.0 | 7.0 | 0.00 | 0.00 | 0.00 | 35 | 1007.8 |
| 20260902211305 | 72 | 69 | 2.0 | 3.0 | 0.00 | 0.00 | 0.00 | 35 | 1007.8 |
| 20260902210305 | 72 | 57 | 1.0 | 5.0 | 0.00 | 0.00 | 0.00 | 36 | 1007.8 |
| 20260902205806 | 72 | 45 | 2.0 | 8.0 | 0.00 | 0.00 | 0.00 | 35 | 1007.8 |
| 20260902204805 | 72 | 52 | 3.0 | 8.0 | 0.00 | 0.00 | 0.00 | 35 | 1007.8 |
| 20260902204305 | 73 | 77 | 2.0 | 5.0 | 0.00 | 0.00 | 0.00 | 34 | 1008.0 |
| 20260902203806 | 73 | 67 | 3.0 | 6.0 | 0.00 | 0.00 | 0.00 | 34 | 1007.8 |
| 20260902203305 | 73 | 29 | 2.0 | 6.0 | 0.00 | 0.00 | 0.00 | 33 | 1007.6 |
| 20260902202805 | 74 | 68 | 2.0 | 5.0 | 0.00 | 0.00 | 0.00 | 33 | 1007.8 |
| 20260902202306 | 74 | 48 | 1.0 | 3.0 | 0.00 | 0.00 | 0.00 | 32 | 1007.7 |
| 20260902201806 | 74 | 73 | 1.0 | 6.0 | 0.00 | 0.00 | 0.00 | 33 | 1007.6 |
| 20260902201305 | 75 | 55 | 1.0 | 3.0 | 0.00 | 0.00 | 0.00 | 32 | 1007.5 |
| 20260902200805 | 74 | 77 | 2.0 | 3.0 | 0.00 | 0.00 | 0.00 | 32 | 1007.6 |
| 20260902200305 | 74 | 20 | 1.0 | 3.0 | 0.00 | 0.00 | 0.00 | 33 | 1007.6 |
| 20260902195805 | 74 | 332 | 1.0 | 5.0 | 0.00 | 0.00 | 0.00 | 35 | 1007.6 |
| 20260902195306 | 74 | 353 | 1.0 | 5.0 | 0.00 | 0.00 | 0.00 | 34 | 1007.7 |
| 20260902194805 | 74 | 358 | 1.0 | 6.0 | 0.00 | 0.00 | 0.00 | 35 | 1007.7 |
| 20260902194306 | 74 | 32 | 1.0 | 5.0 | 0.00 | 0.00 | 0.00 | 35 | 1007.5 |
| 20260902193805 | 74 | 27 | 2.0 | 5.0 | 0.00 | 0.00 | 0.00 | 35 | 1007.4 |
| 20260902193305 | 74 | 21 | 1.0 | 3.0 | 0.00 | 0.00 | 0.00 | 36 | 1007.8 |
| 20260902192805 | 72 | 333 | 0.0 | 3.0 | 0.00 | 0.00 | 0.00 | 39 | 1008.1 |